Weather History for KIFP - January, 2013

Change the Weather History Date:

Friday, January 25, 2013

  Actual Average Record
Temperature  
Mean Temperature 60 °F -  
Max Temperature 66 °F 64 °F 77 °F (2003)
Min Temperature 53 °F 46 °F 34 °F (1991)
Degree Days  
Heating Degree Days 6    
Growing Degree Days 10 (Base 50)    
Moisture  
Dew Point 43 °F    
Average Humidity 52    
Maximum Humidity 88    
Minimum Humidity 40    
Precipitation  
Precipitation 0.07 in - - ()
Sea Level Pressure  
Sea Level Pressure 30.14 in    
Wind  
Wind Speed 11 mph (NNE)    
Max Wind Speed 22 mph    
Max Gust Speed 26 mph    
Visibility 10 miles    
Events      
Averages and records for this station are not official NWS values.
T = Trace of Precipitation, MM = Missing Value Source: NWS Daily Summary

Daily Weather History Graph

Daily Weather History Graph

Search for Another Location

Airport or City:

Trip Planner

Search our weather history database for the weather conditions in past years. The results will help you decide how hot, cold, wet, or windy it might be!

Date:

Astronomy

Jan. 25, 2013 Rise Set
Actual Time 7:41 AM MST 5:59 PM MST
Civil Twilight 7:14 AM MST 6:26 PM MST
Nautical Twilight 6:44 AM MST 6:57 PM MST
Astronomical Twilight 6:14 AM MST 7:27 PM MST
Moon 5:00 PM MST 6:23 AM MST
Length of Visible Light 11h 12m
Length of Day
10h 18m
Waxing Gibbous, 98% of the Moon is Illuminated
Jan 25
Waxing Gibbous
Jan 26
Full
Feb 3
Last Quarter
Feb 10
New
Feb 17
First Quarter

Hourly Weather History & Observations

Time (MST) Temp. Dew Point Humidity Pressure Visibility Wind Dir Wind Speed Gust Speed Precip Events Conditions
12:15 AM 57.2 °F 39.2 °F 51% 30.23 in 10.0 mi NNE 11.5 mph - N/A   Clear
12:35 AM 57.2 °F 39.2 °F 51% 30.23 in 10.0 mi NNE 10.4 mph - N/A   Clear
12:55 AM 57.2 °F 39.2 °F 51% 30.23 in 10.0 mi NNE 9.2 mph - N/A   Clear
1:15 AM 55.4 °F 39.2 °F 54% 30.23 in 10.0 mi NE 8.1 mph - N/A   Clear
1:35 AM 57.2 °F 41.0 °F 55% 30.24 in 10.0 mi NE 6.9 mph - N/A   Clear
1:55 AM 55.4 °F 41.0 °F 58% 30.25 in 10.0 mi Calm Calm - N/A   Clear
2:15 AM 57.2 °F 41.0 °F 55% 30.25 in 10.0 mi NNE 3.5 mph - N/A   Clear
2:35 AM 57.2 °F 41.0 °F 55% 30.24 in 10.0 mi NNE 10.4 mph - N/A   Clear
2:55 AM 57.2 °F 41.0 °F 55% 30.24 in 10.0 mi NNE 9.2 mph - N/A   Clear
3:15 AM 55.4 °F 41.0 °F 58% 30.24 in 10.0 mi North 5.8 mph - N/A   Clear
3:55 AM 53.6 °F 41.0 °F 62% 30.23 in 10.0 mi Calm Calm - N/A   Mostly Cloudy
4:15 AM 55.4 °F 41.0 °F 58% 30.22 in 10.0 mi Calm Calm - N/A   Mostly Cloudy
4:35 AM 55.4 °F 41.0 °F 58% 30.21 in 10.0 mi North 3.5 mph - N/A   Overcast
4:55 AM 57.2 °F 39.2 °F 51% 30.20 in 10.0 mi North 12.7 mph - N/A   Scattered Clouds
5:15 AM 57.2 °F 39.2 °F 51% 30.18 in 10.0 mi NNE 16.1 mph - N/A   Clear
5:35 AM 57.2 °F 39.2 °F 51% 30.18 in 10.0 mi North 19.6 mph - N/A   Clear
5:55 AM 57.2 °F 39.2 °F 51% 30.17 in 10.0 mi North 19.6 mph - N/A   Mostly Cloudy
6:15 AM 57.2 °F 39.2 °F 51% 30.17 in 10.0 mi NNE 19.6 mph - N/A   Mostly Cloudy
6:35 AM 57.2 °F 41.0 °F 55% 30.17 in 10.0 mi North 20.7 mph 25.3 mph N/A   Mostly Cloudy
6:55 AM 57.2 °F 41.0 °F 55% 30.19 in 10.0 mi North 18.4 mph - N/A   Mostly Cloudy
7:15 AM 57.2 °F 39.2 °F 51% 30.20 in 10.0 mi North 16.1 mph - N/A   Overcast
7:35 AM 57.2 °F 39.2 °F 51% 30.20 in 10.0 mi North 15.0 mph - N/A   Overcast
7:55 AM 57.2 °F 39.2 °F 51% 30.21 in 10.0 mi North 15.0 mph - N/A   Overcast
8:15 AM 57.2 °F 39.2 °F 51% 30.21 in 10.0 mi NNE 10.4 mph - N/A   Mostly Cloudy
8:35 AM 57.2 °F 41.0 °F 55% 30.21 in 10.0 mi NNE 11.5 mph - N/A   Partly Cloudy
8:55 AM 57.2 °F 39.2 °F 51% 30.21 in 10.0 mi North 11.5 mph - N/A   Clear
9:15 AM 59.0 °F 39.2 °F 48% 30.21 in 10.0 mi North 10.4 mph - N/A   Partly Cloudy
9:35 AM 57.2 °F 41.0 °F 55% 30.22 in 10.0 mi North 6.9 mph - N/A   Clear
9:55 AM 57.2 °F 41.0 °F 55% 30.21 in 10.0 mi North 9.2 mph - N/A   Scattered Clouds
10:15 AM 59.0 °F 39.2 °F 48% 30.20 in 10.0 mi North 15.0 mph 21.9 mph N/A   Mostly Cloudy
10:35 AM 60.8 °F 41.0 °F 48% 30.21 in 10.0 mi North 15.0 mph 26.5 mph N/A   Mostly Cloudy
10:55 AM 60.8 °F 41.0 °F 48% 30.21 in 10.0 mi NNE 15.0 mph 19.6 mph N/A   Mostly Cloudy
11:15 AM 62.6 °F 41.0 °F 45% 30.20 in 10.0 mi North 17.3 mph 23.0 mph N/A   Scattered Clouds
11:35 AM 64.4 °F 41.0 °F 42% 30.20 in 10.0 mi North 15.0 mph 23.0 mph N/A   Clear
11:55 AM 64.4 °F 41.0 °F 42% 30.20 in 10.0 mi North 11.5 mph - N/A   Clear
12:15 PM 64.4 °F 41.0 °F 42% 30.18 in 10.0 mi North 15.0 mph - N/A   Clear
12:35 PM 64.4 °F 41.0 °F 42% 30.16 in 10.0 mi North 17.3 mph - N/A   Partly Cloudy
12:55 PM 66.2 °F 41.0 °F 40% 30.14 in 10.0 mi North 18.4 mph - N/A   Partly Cloudy
1:15 PM 66.2 °F 41.0 °F 40% 30.12 in 10.0 mi North 18.4 mph - N/A   Clear
1:35 PM 66.2 °F 41.0 °F 40% 30.11 in 10.0 mi North 16.1 mph 23.0 mph N/A   Partly Cloudy
1:55 PM 66.2 °F 41.0 °F 40% 30.10 in 10.0 mi North 16.1 mph 23.0 mph N/A   Scattered Clouds
2:15 PM 66.2 °F 41.0 °F 40% 30.09 in 10.0 mi North 18.4 mph - N/A   Partly Cloudy
2:35 PM 66.2 °F 41.0 °F 40% 30.08 in 10.0 mi North 21.9 mph 25.3 mph N/A   Partly Cloudy
2:55 PM 66.2 °F 42.8 °F 43% 30.07 in 10.0 mi North 20.7 mph 26.5 mph N/A   Clear
3:15 PM 66.2 °F 42.8 °F 43% 30.07 in 10.0 mi North 20.7 mph 24.2 mph N/A   Partly Cloudy
3:35 PM 66.2 °F 42.8 °F 43% 30.07 in 10.0 mi North 16.1 mph - N/A   Partly Cloudy
3:55 PM 66.2 °F 42.8 °F 43% 30.07 in 10.0 mi North 15.0 mph 19.6 mph N/A   Clear
4:15 PM 66.2 °F 42.8 °F 43% 30.07 in 10.0 mi North 20.7 mph - N/A   Clear
4:35 PM 66.2 °F 42.8 °F 43% 30.06 in 10.0 mi North 17.3 mph 20.7 mph N/A   Partly Cloudy
4:55 PM 66.2 °F 42.8 °F 43% 30.04 in 10.0 mi North 17.3 mph 24.2 mph N/A   Scattered Clouds
5:15 PM 66.2 °F 42.8 °F 43% 30.04 in 10.0 mi North 15.0 mph 20.7 mph N/A   Mostly Cloudy
5:35 PM 66.2 °F 42.8 °F 43% 30.04 in 10.0 mi North 18.4 mph - N/A   Mostly Cloudy
5:55 PM 66.2 °F 42.8 °F 43% 30.03 in 10.0 mi North 15.0 mph 21.9 mph N/A   Partly Cloudy
6:15 PM 66.2 °F 42.8 °F 43% 30.04 in 10.0 mi North 15.0 mph 20.7 mph N/A   Clear
6:35 PM 64.4 °F 42.8 °F 45% 30.03 in 10.0 mi North 13.8 mph 20.7 mph N/A   Partly Cloudy
6:55 PM 64.4 °F 44.6 °F 49% 30.03 in 10.0 mi North 13.8 mph 19.6 mph N/A   Mostly Cloudy
7:15 PM 64.4 °F 44.6 °F 49% 30.04 in 10.0 mi North 12.7 mph - N/A   Mostly Cloudy
7:35 PM 64.4 °F 44.6 °F 49% 30.04 in 10.0 mi NNE 11.5 mph - N/A   Overcast
7:55 PM 64.4 °F 46.4 °F 52% 30.04 in 10.0 mi NNE 12.7 mph - N/A   Overcast
8:15 PM 62.6 °F 48.2 °F 59% 30.04 in 10.0 mi NE 10.4 mph - N/A   Overcast
8:35 PM 62.6 °F 48.2 °F 59% 30.04 in 10.0 mi NE 10.4 mph - N/A   Overcast
8:55 PM 62.6 °F 48.2 °F 59% 30.04 in 10.0 mi NE 11.5 mph - N/A   Overcast
9:15 PM 60.8 °F 48.2 °F 63% 30.04 in 10.0 mi NE 10.4 mph - N/A   Overcast
9:35 PM 60.8 °F 48.2 °F 63% 30.05 in 10.0 mi NE 9.2 mph - N/A   Overcast
9:55 PM 59.0 °F 50.0 °F 72% 30.06 in 8.0 mi North 3.5 mph - 0.01 in   Overcast
10:15 PM 59.0 °F 50.0 °F 72% 30.06 in 6.0 mi Calm Calm - 0.02 in   Haze
10:35 PM 57.2 °F 53.6 °F 88% 30.06 in 10.0 mi Calm Calm - 0.03 in   Overcast
10:55 PM 57.2 °F 53.6 °F 88% 30.05 in 7.0 mi Calm Calm - 0.04 in   Overcast
11:15 PM 57.2 °F 53.6 °F 88% 30.05 in 10.0 mi Calm Calm - 0.01 in   Overcast
11:55 PM 57.2 °F 53.6 °F 88% 30.03 in 10.0 mi Calm Calm - 0.02 in   Overcast